Time;durP1;ratioP1;P1;durP2;ratioP2;P2;SDS_P1;SDS_P2;PMS_P1;PMS_P2;Temp;Humidity;BMP_temperature;BMP_pressure;BME280_temperature;BME280_humidity;BME280_pressure;Samples;Min_cycle;Max_cycle;Signal;HPM_P1;HPM_P2
2021/07/26 00:00:55;;;;;;;8.70;5.43;;;19.70;99.90;;;17.79;100.00;100971.59;3522178;39;102173;-85
2021/07/26 00:03:22;;;;;;;9.10;5.80;;;19.70;99.90;;;17.82;100.00;100940.56;3531431;39;100893;-85
2021/07/26 00:05:56;;;;;;;7.25;4.82;;;19.80;99.90;;;17.82;100.00;101327.69;3526162;39;100620;-86
2021/07/26 00:08:25;;;;;;;9.88;4.85;;;19.60;99.90;;;17.84;100.00;101429.38;3527520;39;100483;-84
2021/07/26 00:11:00;;;;;;;9.55;5.03;;;19.60;99.90;;;17.92;100.00;101461.84;3530984;39;103162;-84
2021/07/26 00:13:28;;;;;;;8.88;4.93;;;19.60;99.90;;;18.01;100.00;101462.63;3524822;39;102510;-83
2021/07/26 00:15:56;;;;;;;7.10;5.30;;;19.60;99.90;;;17.94;100.00;101438.13;3522492;39;100452;-84
2021/07/26 00:18:23;;;;;;;8.73;5.18;;;19.60;99.90;;;17.83;100.00;101429.56;3510779;39;102232;-83
2021/07/26 00:20:50;;;;;;;6.05;4.28;;;19.60;99.90;;;17.89;100.00;101432.41;3518251;39;102878;-84
2021/07/26 00:23:17;;;;;;;9.27;5.20;;;19.70;99.90;;;17.96;100.00;101421.69;3533399;39;100312;-83
2021/07/26 00:25:46;;;;;;;5.72;3.88;;;19.70;99.90;;;17.99;100.00;101390.72;3534251;39;99952;-83
2021/07/26 00:28:13;;;;;;;7.47;4.95;;;19.70;99.90;;;17.90;100.00;101366.41;3522716;39;102856;-84
2021/07/26 00:30:40;;;;;;;7.72;4.72;;;19.70;99.90;;;17.86;100.00;101375.91;3529715;39;101255;-83
2021/07/26 00:34:06;;;;;;;5.65;4.10;;;19.60;99.90;;;17.83;100.00;101367.28;3534014;39;100396;-84
2021/07/26 00:36:33;;;;;;;7.07;4.65;;;19.70;99.90;;;17.77;100.00;101374.28;3532617;39;100070;-83
2021/07/26 00:39:00;;;;;;;9.65;5.28;;;19.70;99.90;;;17.73;100.00;101367.53;3536896;39;101169;-83
2021/07/26 00:41:29;;;;;;;7.10;6.10;;;19.70;99.90;;;17.78;100.00;101348.03;3532324;39;101576;-82
2021/07/26 00:43:56;;;;;;;6.65;5.55;;;19.70;99.90;;;17.71;100.00;101360.59;3532424;39;100695;-84
2021/07/26 00:46:23;;;;;;;8.27;5.90;;;19.60;99.90;;;17.71;100.00;101379.53;3529876;39;100068;-86
2021/07/26 00:48:51;;;;;;;6.85;5.32;;;19.60;99.90;;;17.68;100.00;101407.81;3533798;39;100392;-82
2021/07/26 00:51:18;;;;;;;8.90;5.68;;;19.50;99.90;;;17.71;100.00;101431.81;3502564;22;105697;-85
2021/07/26 00:53:46;;;;;;;7.30;5.43;;;19.50;99.90;;;17.67;100.00;101435.91;3507650;40;102279;-86
2021/07/26 00:56:15;;;;;;;9.57;5.85;;;19.40;99.90;;;17.51;100.00;101374.56;3521755;39;100362;-85
2021/07/26 00:58:45;;;;;;;9.60;6.10;;;19.30;99.90;;;17.40;100.00;101385.78;3518360;40;100883;-85
2021/07/26 01:01:13;;;;;;;6.72;4.60;;;19.30;99.90;;;17.28;100.00;101421.50;3509908;39;102217;-83
2021/07/26 01:03:42;;;;;;;7.25;5.32;;;20.30;99.90;;;17.28;100.00;101435.88;3521895;39;100596;-85
2021/07/26 01:06:09;;;;;;;9.20;5.45;;;19.30;99.90;;;17.28;100.00;101384.47;3518084;39;100099;-85
2021/07/26 01:08:36;;;;;;;10.32;6.07;;;19.20;99.90;;;17.23;100.00;101311.97;3522339;39;101332;-85
2021/07/26 01:11:03;;;;;;;10.35;5.78;;;19.10;99.90;;;17.22;100.00;101201.25;3512994;40;103191;-85
2021/07/26 01:13:31;;;;;;;6.60;5.55;;;19.10;99.90;;;17.23;100.00;101214.59;3508257;40;101084;-87
2021/07/26 01:16:00;;;;;;;6.68;5.35;;;19.00;99.90;;;17.19;100.00;101190.78;3512428;39;100071;-83
2021/07/26 01:19:03;;;;;;;8.32;5.88;;;19.00;99.90;;;17.20;100.00;101001.28;3567730;22;100308;-82
2021/07/26 01:22:17;;;;;;;6.63;5.72;;;18.90;99.90;;;17.19;100.00;100848.16;3524431;39;101030;-84
2021/07/26 01:25:29;;;;;;;9.77;5.72;;;18.90;99.90;;;17.20;100.00;100590.22;3515643;39;102523;-83
2021/07/26 01:28:45;;;;;;;7.10;5.60;;;18.90;99.90;;;17.24;100.00;100567.19;3512533;39;100067;-84
2021/07/26 01:31:57;;;;;;;11.45;5.97;;;18.80;99.90;;;17.24;100.00;100553.66;3500301;40;102993;-82
2021/07/26 01:35:09;;;;;;;7.35;5.40;;;18.80;99.90;;;17.21;100.00;100537.81;3512434;39;100479;-84
2021/07/26 01:38:22;;;;;;;7.43;5.75;;;18.80;99.90;;;17.15;100.00;100532.38;3505173;40;101045;-84
2021/07/26 01:41:36;;;;;;;6.38;5.13;;;18.70;99.90;;;17.01;100.00;100541.41;3516816;39;100066;-85
2021/07/26 01:44:48;;;;;;;8.60;5.18;;;18.60;99.90;;;16.95;100.00;100539.44;3516713;39;100124;-85
2021/07/26 01:48:09;;;;;;;7.43;5.05;;;18.20;99.90;;;16.92;100.00;100546.09;3522882;39;101057;-83
2021/07/26 01:51:28;;;;;;;6.72;5.47;;;18.50;99.90;;;16.91;100.00;100544.44;3518230;40;100561;-85
2021/07/26 01:54:41;;;;;;;9.18;6.05;;;18.50;99.90;;;16.95;100.00;100575.44;3519126;39;100315;-85
2021/07/26 01:57:53;;;;;;;6.97;5.53;;;18.50;99.90;;;16.82;100.00;100732.88;3520262;39;102969;-83
2021/07/26 02:01:04;;;;;;;7.63;5.63;;;18.40;99.90;;;16.83;100.00;100890.47;3526737;39;101263;-83
2021/07/26 02:04:16;;;;;;;7.55;5.25;;;18.30;99.90;;;16.76;100.00;100957.09;3517701;39;101450;-84
2021/07/26 02:07:28;;;;;;;8.27;5.93;;;18.30;99.90;;;16.76;100.00;101021.97;3526069;39;100740;-83
2021/07/26 02:10:41;;;;;;;7.20;5.60;;;18.30;99.90;;;16.73;100.00;101085.31;3548899;22;100306;-83
2021/07/26 02:13:53;;;;;;;8.50;6.10;;;18.20;99.90;;;16.73;100.00;101119.59;3527706;39;100232;-83
2021/07/26 02:17:09;;;;;;;9.60;6.03;;;18.20;99.90;;;16.74;100.00;101118.56;3508792;40;100632;-83
2021/07/26 02:20:21;;;;;;;10.45;6.43;;;18.20;99.90;;;16.76;100.00;101130.91;3505903;40;100443;-82
2021/07/26 02:23:33;;;;;;;7.88;6.00;;;18.10;99.90;;;16.67;100.00;101060.88;3544658;23;101728;-83
2021/07/26 02:26:46;;;;;;;8.43;6.57;;;18.20;99.90;;;16.73;100.00;100916.91;3509443;39;101320;-84
2021/07/26 02:29:58;;;;;;;10.88;6.22;;;18.10;99.90;;;16.68;100.00;100732.91;3502187;40;100126;-84
2021/07/26 02:33:09;;;;;;;8.93;5.82;;;18.90;99.90;;;16.68;100.00;100649.97;3508514;40;100092;-83
2021/07/26 02:36:21;;;;;;;9.82;6.25;;;18.10;99.90;;;16.68;100.00;100595.94;3505497;40;103027;-83
2021/07/26 02:39:34;;;;;;;7.10;5.68;;;18.20;99.90;;;16.59;100.00;100571.88;3520768;39;103264;-86
2021/07/26 02:42:47;;;;;;;13.00;6.32;;;18.30;99.90;;;16.63;100.00;100567.81;3546482;22;102608;-82
2021/07/26 02:45:59;;;;;;;6.90;5.38;;;17.90;99.90;;;16.63;100.00;100541.63;3509993;40;100040;-83
2021/07/26 02:49:11;;;;;;;8.88;6.35;;;18.10;99.90;;;16.58;100.00;100526.97;3499254;40;102773;-84
2021/07/26 02:52:22;;;;;;;10.35;6.22;;;17.70;99.90;;;16.43;100.00;100529.75;3509918;40;101530;-84
2021/07/26 02:55:34;;;;;;;11.50;6.60;;;18.00;99.90;;;16.35;100.00;100827.75;3544452;23;101441;-85
2021/07/26 02:58:48;;;;;;;9.48;5.68;;;18.00;99.90;;;16.27;100.00;100922.34;3520406;22;101429;-85
2021/07/26 03:02:00;;;;;;;8.98;6.28;;;17.90;99.90;;;16.24;100.00;101025.28;3502612;40;103375;-85
2021/07/26 03:05:12;;;;;;;9.77;6.03;;;17.80;99.90;;;16.16;100.00;101127.94;3517918;39;101315;-85
2021/07/26 03:08:26;;;;;;;7.53;5.75;;;18.00;99.90;;;16.22;100.00;101293.81;3553132;23;103814;-84
2021/07/26 03:11:38;;;;;;;11.25;6.68;;;17.90;99.90;;;16.22;100.00;101410.78;3617374;22;101028;-83
2021/07/26 03:14:51;;;;;;;8.10;5.88;;;17.70;99.90;;;16.19;100.00;101467.00;3518951;39;100634;-85
2021/07/26 03:17:27;;;;;;;12.00;5.85;;;17.60;99.90;;;16.18;100.00;101509.34;3574386;23;105466;-83
2021/07/26 03:19:54;;;;;;;9.93;6.53;;;17.60;99.90;;;16.20;100.00;101515.41;3517377;40;101951;-85
2021/07/26 03:23:00;;;;;;;10.77;6.63;;;17.60;99.90;;;16.22;100.00;101490.94;3501556;39;99918;-83
2021/07/26 03:25:29;;;;;;;7.78;6.47;;;17.60;99.90;;;16.33;100.00;101512.22;3496007;40;100174;-82
2021/07/26 03:27:58;;;;;;;11.45;7.25;;;17.60;99.90;;;16.36;100.00;101526.25;3501217;40;103300;-83
2021/07/26 03:30:27;;;;;;;9.70;6.53;;;17.60;99.90;;;16.32;100.00;101529.47;3507975;39;101454;-84
2021/07/26 03:32:54;;;;;;;7.07;6.15;;;18.10;99.90;;;16.27;100.00;101529.09;3502471;40;100345;-83
2021/07/26 03:35:23;;;;;;;9.70;6.03;;;17.60;99.90;;;16.26;100.00;101524.72;3506081;40;102958;-85
2021/07/26 03:38:29;;;;;;;13.13;7.05;;;17.60;99.90;;;16.22;100.00;101502.59;3575840;22;105177;-86
2021/07/26 03:41:40;;;;;;;10.75;6.50;;;18.40;99.90;;;16.21;100.00;101470.34;3512805;40;100885;-85
2021/07/26 03:45:03;;;;;;;12.20;7.07;;;17.60;99.90;;;16.34;100.00;101517.47;3511203;40;100108;-85
2021/07/26 03:48:17;;;;;;;9.95;6.75;;;17.60;99.90;;;16.27;100.00;101548.84;3510231;40;103366;-83
2021/07/26 03:51:29;;;;;;;8.57;5.57;;;17.60;99.90;;;16.25;100.00;101553.56;3511715;40;100913;-84
2021/07/26 03:54:04;;;;;;;10.18;6.15;;;17.60;99.90;;;16.20;100.00;101552.38;3542547;23;100865;-83
2021/07/26 03:56:32;;;;;;;9.27;5.60;;;17.60;99.90;;;16.15;100.00;101526.72;3558144;23;100681;-84
2021/07/26 03:58:59;;;;;;;9.82;5.32;;;17.60;99.90;;;16.15;100.00;101515.91;3511181;39;102623;-84
2021/07/26 04:01:25;;;;;;;9.85;5.55;;;17.60;99.90;;;16.16;100.00;101523.00;3505799;40;101068;-82
2021/07/26 04:03:54;;;;;;;9.48;6.20;;;17.70;99.90;;;16.23;100.00;101523.19;3506923;40;100401;-84
2021/07/26 04:06:22;;;;;;;8.88;6.13;;;17.30;99.90;;;16.29;100.00;101516.28;3508848;39;100317;-83
2021/07/26 04:09:29;;;;;;;9.63;5.60;;;17.90;99.90;;;16.33;100.00;101539.25;3543219;23;102851;-85
2021/07/26 04:12:43;;;;;;;15.68;6.28;;;17.80;99.90;;;16.64;100.00;101539.50;3545585;23;103041;-83
2021/07/26 04:15:54;;;;;;;11.13;6.30;;;17.80;99.90;;;16.85;100.00;101510.97;3584640;22;101644;-83
2021/07/26 04:18:30;;;;;;;9.82;6.97;;;17.90;99.90;;;17.35;100.00;101484.69;3589527;22;104616;-85
2021/07/26 04:21:00;;;;;;;8.85;6.70;;;18.00;99.90;;;17.55;100.00;101407.53;3593317;22;104245;-84
2021/07/26 04:23:27;;;;;;;7.72;6.05;;;18.90;99.90;;;17.66;100.00;101384.66;3514278;39;102602;-84
2021/07/26 04:25:54;;;;;;;10.88;6.97;;;18.10;99.90;;;17.55;100.00;101353.41;3574030;22;101223;-83
2021/07/26 04:28:22;;;;;;;9.80;7.60;;;18.20;99.90;;;17.66;100.00;101344.06;3514719;39;100250;-83
2021/07/26 04:30:49;;;;;;;9.70;6.75;;;18.30;99.90;;;17.58;100.00;101315.97;3555963;22;105013;-83
2021/07/26 04:33:16;;;;;;;8.25;6.38;;;18.40;99.90;;;17.48;100.00;101263.97;3512246;39;101972;-85
2021/07/26 04:35:43;;;;;;;10.07;6.45;;;19.40;99.90;;;17.67;100.00;101246.44;3524081;39;100685;-86
2021/07/26 04:40:37;;;;;;;13.52;7.35;;;18.70;99.90;;;17.81;100.00;101199.59;3503826;40;101860;-84
2021/07/26 04:43:04;;;;;;;12.90;6.97;;;19.70;99.90;;;17.65;100.00;101177.28;3488967;40;101281;-83
2021/07/26 04:45:32;;;;;;;11.13;6.97;;;19.80;99.90;;;17.54;100.00;101187.50;3482774;40;100330;-86
2021/07/26 04:48:00;;;;;;;12.73;7.40;;;18.90;99.90;;;17.44;100.00;101192.28;3489405;40;100418;-86
2021/07/26 04:50:27;;;;;;;11.43;8.38;;;18.90;99.90;;;17.39;100.00;101216.34;3497298;40;100738;-84
2021/07/26 04:52:54;;;;;;;13.18;8.65;;;19.00;99.90;;;17.19;100.00;101217.81;3496061;40;100934;-86
2021/07/26 04:55:21;;;;;;;10.25;7.70;;;18.90;99.90;;;17.37;100.00;101267.09;3490430;40;100158;-85
2021/07/26 04:57:50;;;;;;;11.30;7.55;;;18.70;99.90;;;17.31;100.00;101292.13;3486658;40;100898;-86
2021/07/26 05:00:17;;;;;;;13.85;8.55;;;18.90;99.90;;;17.55;100.00;101321.78;3501350;40;102909;-84
2021/07/26 05:02:44;;;;;;;11.02;8.20;;;19.00;99.90;;;18.02;100.00;101331.63;3606873;22;101675;-87
2021/07/26 05:05:12;;;;;;;11.95;8.45;;;18.80;99.90;;;18.04;100.00;101255.63;3516199;39;102103;-85
2021/07/26 05:07:42;;;;;;;8.65;7.35;;;19.00;99.90;;;18.28;100.00;101226.41;3521605;39;100446;-85
2021/07/26 05:10:12;;;;;;;12.63;7.63;;;18.70;99.90;;;18.27;100.00;101189.53;3526890;39;100021;-86
2021/07/26 05:12:40;;;;;;;10.85;7.25;;;19.20;99.90;;;18.91;100.00;101162.66;3552397;22;105280;-85
2021/07/26 05:15:10;;;;;;;12.65;8.30;;;19.10;99.90;;;18.74;100.00;101112.38;3518473;40;100999;-85
2021/07/26 05:17:37;;;;;;;9.98;7.30;;;19.50;99.90;;;19.07;100.00;101131.72;3516841;40;100352;-84
2021/07/26 05:20:05;;;;;;;10.43;7.82;;;19.70;99.90;;;19.37;100.00;101121.59;3505242;40;101478;-86
2021/07/26 05:22:32;;;;;;;11.82;7.38;;;19.80;99.90;;;19.67;100.00;101085.09;3509722;40;100867;-84
2021/07/26 05:24:59;;;;;;;12.13;7.13;;;20.00;99.90;;;19.56;100.00;101042.19;3546799;22;100724;-86
2021/07/26 05:27:28;;;;;;;11.45;7.50;;;20.20;99.90;;;19.65;100.00;101013.88;3531946;23;100533;-84
2021/07/26 05:29:55;;;;;;;12.35;8.43;;;20.40;99.90;;;19.86;100.00;100983.06;3498191;40;100675;-83
2021/07/26 05:32:23;;;;;;;8.80;6.72;;;20.60;99.90;;;19.85;100.00;100937.94;3509962;40;100822;-84
2021/07/26 05:34:50;;;;;;;9.90;6.10;;;21.40;99.90;;;19.97;100.00;100903.72;3517058;40;99975;-84
2021/07/26 05:37:18;;;;;;;9.75;7.10;;;21.80;99.90;;;20.12;100.00;100861.97;3511806;40;100282;-84
2021/07/26 05:39:45;;;;;;;8.52;6.38;;;21.00;99.90;;;19.92;100.00;100805.72;3503332;40;102894;-84
2021/07/26 05:42:12;;;;;;;9.63;6.43;;;21.10;99.90;;;20.09;100.00;100792.56;3515401;39;103042;-86
2021/07/26 05:44:40;;;;;;;10.30;6.28;;;21.50;99.90;;;20.14;100.00;100752.03;3516801;39;101402;-86
2021/07/26 05:47:09;;;;;;;7.43;5.28;;;21.60;99.90;;;20.19;100.00;100719.63;3505557;40;100771;-83
2021/07/26 05:49:38;;;;;;;9.60;5.90;;;21.70;99.90;;;20.26;100.00;100700.63;3497837;40;101030;-84
2021/07/26 05:52:06;;;;;;;11.88;6.30;;;22.60;99.90;;;20.13;100.00;100652.56;3496870;40;101210;-84
2021/07/26 05:54:33;;;;;;;10.68;5.25;;;21.90;99.90;;;20.43;100.00;100623.88;3499426;40;100707;-86
2021/07/26 05:57:03;;;;;;;10.60;5.72;;;22.00;99.90;;;20.63;100.00;100599.34;3489329;40;100062;-82
2021/07/26 05:59:30;;;;;;;9.15;5.50;;;22.40;99.90;;;20.68;100.00;100549.75;3502179;39;101437;-83
2021/07/26 06:01:57;;;;;;;7.65;4.95;;;23.10;99.90;;;21.08;100.00;100526.66;3500123;40;102044;-83
2021/07/26 06:04:25;;;;;;;7.13;5.63;;;22.20;99.90;;;20.81;100.00;100459.91;3496536;40;100483;-83
2021/07/26 06:06:57;;;;;;;6.30;4.72;;;22.60;99.90;;;20.88;100.00;100428.09;3486122;40;100152;-82
2021/07/26 06:09:26;;;;;;;8.68;5.35;;;22.70;99.90;;;21.30;100.00;100399.22;3485145;40;102965;-83
2021/07/26 06:11:54;;;;;;;7.63;4.90;;;22.80;99.90;;;21.26;100.00;100372.72;3486894;40;100956;-82
2021/07/26 06:14:22;;;;;;;7.50;4.63;;;23.00;99.90;;;21.35;100.00;100341.41;3496105;40;100594;-84
2021/07/26 06:16:51;;;;;;;7.78;5.50;;;23.60;99.90;;;20.94;100.00;100323.81;3498191;40;100082;-82
2021/07/26 06:19:20;;;;;;;9.15;4.68;;;24.10;99.90;;;21.17;100.00;100314.97;3497451;40;100915;-82
2021/07/26 06:21:50;;;;;;;5.43;4.10;;;24.10;99.90;;;21.16;100.00;100292.38;3497737;40;100942;-84
2021/07/26 06:24:21;;;;;;;10.82;4.85;;;24.10;99.90;;;21.40;100.00;100290.66;3488018;40;102787;-82
2021/07/26 06:26:50;;;;;;;6.10;3.95;;;23.40;99.90;;;21.41;100.00;100281.44;3502986;39;100204;-82
2021/07/26 06:29:17;;;;;;;4.85;3.92;;;24.00;99.90;;;21.63;100.00;100272.78;3503659;39;103031;-82
2021/07/26 06:31:46;;;;;;;6.03;3.92;;;23.60;99.90;;;21.82;100.00;100248.00;3502966;39;103646;-85
2021/07/26 06:34:13;;;;;;;3.83;3.15;;;24.60;99.90;;;22.03;100.00;100248.53;3504299;39;101973;-83
2021/07/26 06:36:41;;;;;;;5.63;3.97;;;23.90;99.90;;;22.45;100.00;100284.75;3499351;40;100001;-82
2021/07/26 06:39:10;;;;;;;5.72;3.38;;;24.10;99.90;;;22.39;100.00;100226.53;3497640;40;101009;-85
2021/07/26 06:41:38;;;;;;;4.18;3.60;;;24.30;99.90;;;22.68;100.00;100260.22;3506780;39;102975;-84
2021/07/26 06:44:06;;;;;;;4.15;3.10;;;24.50;99.90;;;22.70;100.00;100202.69;3504855;39;101396;-83
2021/07/26 06:46:34;;;;;;;4.60;2.97;;;24.80;99.90;;;23.34;100.00;100168.03;3499154;40;100045;-84
2021/07/26 06:49:01;;;;;;;4.18;2.88;;;25.00;99.90;;;23.43;100.00;100123.69;3501702;40;101148;-84
2021/07/26 06:51:28;;;;;;;5.53;3.33;;;25.20;99.90;;;23.78;100.00;100076.22;3508448;39;103123;-83
2021/07/26 06:53:55;;;;;;;5.45;2.78;;;25.50;99.90;;;23.66;100.00;100029.88;3499227;40;103187;-83
2021/07/26 06:56:23;;;;;;;4.97;3.80;;;25.60;99.90;;;23.71;100.00;100020.94;3498601;40;100366;-84
2021/07/26 06:58:51;;;;;;;3.85;2.63;;;26.70;99.90;;;24.18;100.00;100008.47;3500594;40;101314;-82
2021/07/26 07:01:18;;;;;;;6.32;3.45;;;26.20;99.90;;;23.82;100.00;99995.41;3499449;40;101656;-82
2021/07/26 07:03:46;;;;;;;3.05;2.47;;;27.10;99.90;;;23.95;100.00;99987.69;3499281;40;101053;-84
2021/07/26 07:06:16;;;;;;;6.05;2.65;;;26.70;99.90;;;23.87;100.00;99992.72;3499626;40;100430;-83
2021/07/26 07:08:44;;;;;;;2.58;1.98;;;26.80;99.90;;;23.48;100.00;99987.25;3487724;40;101276;-82
2021/07/26 07:11:14;;;;;;;2.30;1.98;;;26.90;99.90;;;23.49;100.00;99999.78;3489845;40;101082;-85
2021/07/26 07:13:43;;;;;;;5.03;2.22;;;26.90;99.90;;;23.37;100.00;100006.44;3478806;40;102441;-82
2021/07/26 07:16:14;;;;;;;3.50;2.63;;;27.40;99.90;;;23.57;100.00;100015.81;3488427;40;100008;-83
2021/07/26 07:18:41;;;;;;;4.72;3.58;;;27.00;99.90;;;23.74;100.00;100023.97;3500660;39;101548;-84
2021/07/26 07:21:08;;;;;;;6.47;3.08;;;27.00;99.90;;;24.03;100.00;100010.19;3499932;39;100053;-83
2021/07/26 07:23:35;;;;;;;4.13;2.65;;;27.20;99.90;;;23.95;100.00;100009.53;3488423;40;100451;-82
2021/07/26 07:26:02;;;;;;;3.67;2.60;;;27.20;99.90;;;23.79;100.00;99998.63;3484540;40;99898;-84
2021/07/26 07:28:29;;;;;;;3.45;2.30;;;27.50;99.50;;;24.59;100.00;99987.94;3478878;40;101165;-83
2021/07/26 07:30:56;;;;;;;3.65;2.15;;;27.40;99.50;;;24.17;100.00;99962.25;3477619;40;101298;-82
2021/07/26 07:33:25;;;;;;;2.40;2.20;;;27.60;98.90;;;24.03;100.00;99948.13;3478079;40;100909;-84
2021/07/26 07:35:52;;;;;;;2.03;1.77;;;27.70;97.50;;;24.00;100.00;99949.47;3478121;40;100199;-83
2021/07/26 07:38:20;;;;;;;3.60;2.58;;;27.70;97.20;;;23.88;100.00;99950.66;3483852;40;103415;-84
2021/07/26 07:40:47;;;;;;;2.45;2.25;;;27.70;96.80;;;24.01;100.00;99947.56;3477174;40;100339;-82
2021/07/26 07:43:14;;;;;;;3.13;2.28;;;27.80;96.40;;;23.87;100.00;99954.47;3477073;40;101126;-84
2021/07/26 07:45:41;;;;;;;5.35;2.70;;;27.90;95.90;;;24.60;100.00;99964.94;3478101;40;100043;-82
2021/07/26 07:48:08;;;;;;;3.08;2.28;;;27.70;95.60;;;24.06;100.00;99958.56;3483567;40;102840;-83
2021/07/26 07:50:37;;;;;;;7.00;2.28;;;27.90;94.60;;;24.08;100.00;99974.72;3477847;40;101398;-83
2021/07/26 07:53:04;;;;;;;8.02;2.75;;;28.30;94.20;;;23.94;100.00;99980.56;3477437;40;100629;-82
2021/07/26 07:55:31;;;;;;;6.57;2.83;;;27.90;93.70;;;23.74;100.00;99980.25;3486203;40;100016;-84
2021/07/26 07:58:03;;;;;;;4.30;2.55;;;27.80;93.20;;;23.86;100.00;99974.72;3477783;40;101108;-83
2021/07/26 08:00:30;;;;;;;1.98;1.55;;;27.80;93.20;;;24.16;100.00;99969.63;3483914;40;103255;-84
2021/07/26 08:02:59;;;;;;;3.28;2.30;;;27.10;92.60;;;24.65;100.00;99966.94;3477277;40;100426;-84
2021/07/26 08:05:26;;;;;;;3.28;2.50;;;28.00;93.00;;;24.79;100.00;99962.69;3476808;40;100054;-82
2021/07/26 08:07:55;;;;;;;3.13;2.03;;;28.10;92.50;;;25.15;100.00;99938.41;3476738;40;101309;-84
2021/07/26 08:10:22;;;;;;;2.13;1.50;;;28.30;92.20;;;25.68;100.00;99927.28;3483319;40;102863;-84
2021/07/26 08:12:49;;;;;;;3.97;2.58;;;28.60;91.90;;;25.48;100.00;99912.59;3477267;40;100925;-83
2021/07/26 08:15:17;;;;;;;2.97;2.20;;;28.80;91.30;;;25.73;100.00;99912.78;3476940;40;100053;-83
2021/07/26 08:17:47;;;;;;;2.65;2.40;;;29.10;90.40;;;26.42;100.00;99905.09;3477334;40;101436;-83
2021/07/26 08:20:19;;;;;;;3.05;2.40;;;29.40;90.00;;;25.76;100.00;99901.28;3467445;40;101208;-83
2021/07/26 08:22:47;;;;;;;2.78;2.40;;;29.70;86.60;;;25.88;100.00;99898.31;3467450;40;100805;-83
2021/07/26 08:25:16;;;;;;;3.47;1.85;;;29.90;84.50;;;25.80;100.00;99896.94;3481200;40;99984;-82
2021/07/26 08:27:52;;;;;;;2.95;2.05;;;30.00;83.60;;;25.72;100.00;99909.19;3498683;39;100328;-83
2021/07/26 08:30:22;;;;;;;2.65;2.28;;;30.20;82.20;;;26.14;100.00;99905.53;3492385;40;101379;-83
2021/07/26 08:32:49;;;;;;;3.13;1.85;;;30.40;81.00;;;25.90;100.00;99916.16;3496294;40;100162;-82
2021/07/26 08:35:17;;;;;;;2.85;1.95;;;30.50;79.90;;;25.34;100.00;99915.81;3496528;40;99969;-82
2021/07/26 08:37:45;;;;;;;2.03;1.80;;;30.60;77.70;;;25.92;100.00;99907.66;3496519;40;100994;-84
2021/07/26 08:40:13;;;;;;;4.28;2.72;;;30.70;76.00;;;26.14;100.00;99911.03;3497182;40;101324;-84
2021/07/26 08:42:42;;;;;;;2.40;1.73;;;30.70;74.20;;;26.34;100.00;99902.88;3496648;40;100368;-83
2021/07/26 08:45:10;;;;;;;1.80;1.15;;;31.00;74.30;;;26.38;100.00;99892.19;3497462;40;100662;-83
2021/07/26 08:47:42;;;;;;;2.30;1.95;;;30.90;73.70;;;26.48;100.00;99890.28;3504829;39;102902;-84
2021/07/26 08:50:11;;;;;;;1.77;1.30;;;31.00;71.00;;;26.16;100.00;99881.41;3497769;40;100890;-82
2021/07/26 08:52:41;;;;;;;3.15;1.80;;;31.00;69.60;;;26.12;100.00;99881.13;3496113;40;100288;-83
2021/07/26 08:55:12;;;;;;;2.83;2.25;;;31.00;69.20;;;26.50;100.00;99891.94;3497400;40;99962;-82
2021/07/26 08:57:44;;;;;;;3.10;2.10;;;31.00;69.50;;;26.79;100.00;99882.09;3494955;40;101182;-83
2021/07/26 09:00:16;;;;;;;2.38;1.90;;;31.10;70.20;;;26.98;100.00;99872.22;3496932;39;101290;-84
2021/07/26 09:02:43;;;;;;;3.33;1.92;;;31.30;69.00;;;26.81;100.00;99875.22;3489173;40;100194;-84
2021/07/26 09:05:12;;;;;;;2.20;1.83;;;30.90;66.70;;;26.27;100.00;99876.78;3490616;40;100621;-83
2021/07/26 09:07:42;;;;;;;2.42;1.80;;;31.50;66.10;;;26.06;100.00;99876.75;3477021;40;103374;-84
2021/07/26 09:10:14;;;;;;;1.80;1.58;;;31.40;64.60;;;26.96;100.00;99877.16;3487565;40;100920;-83
2021/07/26 09:12:44;;;;;;;3.17;1.38;;;31.30;65.80;;;28.23;100.00;99868.56;3484791;40;102743;-82
2021/07/26 09:15:29;;;;;;;1.75;1.65;;;31.30;66.70;;;27.95;100.00;99848.03;3487187;40;100168;-83
2021/07/26 09:18:00;;;;;;;2.05;1.50;;;31.70;66.70;;;27.41;100.00;99835.06;3487017;40;101173;-84
2021/07/26 09:20:31;;;;;;;2.78;1.60;;;32.00;63.40;;;26.86;100.00;99838.69;3486325;40;101422;-83
2021/07/26 09:23:09;;;;;;;3.05;1.75;;;32.00;62.00;;;27.01;100.00;99840.66;3486259;40;100739;-82
2021/07/26 09:25:37;;;;;;;2.33;1.98;;;32.00;60.90;;;28.12;100.00;99845.75;3485442;40;100051;-84
2021/07/26 09:28:09;;;;;;;2.97;2.35;;;32.60;61.40;;;27.97;100.00;99832.09;3496207;40;101053;-84
2021/07/26 09:30:43;;;;;;;2.60;1.65;;;32.30;60.20;;;26.94;100.00;99842.88;3489598;40;101770;-83
2021/07/26 09:33:20;;;;;;;1.70;1.55;;;32.50;58.00;;;27.15;100.00;99845.28;3495349;39;102172;-81
2021/07/26 09:36:12;;;;;;;1.63;1.52;;;32.30;57.70;;;27.49;100.00;99839.16;3497840;40;100614;-81
2021/07/26 09:38:42;;;;;;;2.00;1.80;;;32.20;57.90;;;28.10;100.00;99833.38;3503565;39;101219;-84
2021/07/26 09:41:09;;;;;;;2.45;1.90;;;32.20;58.00;;;27.66;100.00;99836.94;3495963;39;100219;-84
2021/07/26 09:43:38;;;;;;;3.38;1.27;;;32.20;57.90;;;26.96;100.00;99835.97;3494877;40;102922;-81
2021/07/26 09:46:06;;;;;;;2.35;1.88;;;32.30;56.80;;;27.83;100.00;99844.81;3495601;40;100016;-84
2021/07/26 09:48:33;;;;;;;1.58;1.40;;;32.30;57.20;;;28.03;100.00;99838.41;3494902;40;101462;-84
2021/07/26 09:51:03;;;;;;;1.75;1.33;;;32.40;57.30;;;28.02;100.00;99836.75;3496120;40;101304;-82
2021/07/26 09:53:31;;;;;;;2.22;1.58;;;32.50;56.40;;;28.00;100.00;99834.28;3495871;40;100782;-83
2021/07/26 09:55:59;;;;;;;2.38;1.65;;;32.50;55.60;;;28.11;100.00;99835.84;3497405;40;100285;-83
2021/07/26 09:58:39;;;;;;;1.67;1.38;;;32.80;55.70;;;27.89;100.00;99839.00;3494849;40;103228;-83
2021/07/26 10:01:09;;;;;;;2.28;1.48;;;33.00;55.30;;;28.19;100.00;99835.28;3491103;40;100607;-84
2021/07/26 10:03:38;;;;;;;1.77;1.50;;;33.10;55.00;;;28.79;100.00;99830.47;3475964;40;102473;-84
2021/07/26 10:06:06;;;;;;;1.95;1.52;;;33.20;54.80;;;28.12;100.00;99833.94;3486269;40;100150;-83
2021/07/26 10:08:34;;;;;;;1.58;1.10;;;33.40;54.00;;;28.36;100.00;99828.56;3486665;40;103449;-82
2021/07/26 10:11:01;;;;;;;1.60;1.50;;;33.50;53.80;;;27.78;100.00;99833.84;3497551;40;100992;-82
2021/07/26 10:13:30;;;;;;;2.67;1.45;;;33.60;53.40;;;28.44;100.00;99825.19;3487236;40;102547;-84
2021/07/26 10:15:59;;;;;;;2.75;2.10;;;33.70;53.30;;;28.01;100.00;99819.44;3489002;40;100239;-83
2021/07/26 10:18:27;;;;;;;3.35;2.03;;;33.70;53.20;;;28.54;100.00;99828.72;3477269;40;101541;-83
2021/07/26 10:21:02;;;;;;;2.58;1.88;;;33.70;53.20;;;27.98;100.00;99824.66;3490958;40;100942;-84
2021/07/26 10:23:37;;;;;;;2.50;1.42;;;33.90;52.60;;;28.58;100.00;99820.69;3506665;39;99871;-83
2021/07/26 10:26:08;;;;;;;1.77;1.60;;;34.00;52.40;;;28.94;100.00;99818.47;3504248;39;100280;-85
2021/07/26 10:28:40;;;;;;;2.00;1.73;;;34.20;52.40;;;28.56;100.00;99817.44;3498741;40;101157;-82
2021/07/26 10:31:39;;;;;;;2.03;1.90;;;34.40;52.30;;;28.97;100.00;99814.31;3493606;40;101290;-82
2021/07/26 10:34:09;;;;;;;2.40;1.88;;;34.70;51.20;;;28.48;100.00;99809.78;3486024;40;102314;-82
2021/07/26 10:36:57;;;;;;;2.65;1.70;;;35.00;50.80;;;29.29;100.00;99809.84;3491948;40;100029;-82
2021/07/26 10:39:28;;;;;;;1.65;1.55;;;35.10;50.80;;;29.46;100.00;99819.59;3497090;40;101060;-82
2021/07/26 10:42:03;;;;;;;2.25;1.80;;;35.30;50.30;;;29.34;100.00;99825.47;3483626;40;103335;-84
2021/07/26 10:44:49;;;;;;;3.38;2.15;;;35.60;49.90;;;29.38;100.00;99817.50;3487194;40;101029;-82